sensor_id;sensor_type;location;lat;lon;timestamp;temperature;humidity
23783;DHT22;12071;50.850;4.446;2024-03-02T00:00:14;7.60;12.60
23783;DHT22;12071;50.850;4.446;2024-03-02T00:02:44;7.60;13.10
23783;DHT22;12071;50.850;4.446;2024-03-02T00:05:12;7.60;4.40
23783;DHT22;12071;50.850;4.446;2024-03-02T00:07:54;7.50;5.70
23783;DHT22;12071;50.850;4.446;2024-03-02T00:10:25;7.50;9.10
23783;DHT22;12071;50.850;4.446;2024-03-02T00:12:55;7.30;13.50
23783;DHT22;12071;50.850;4.446;2024-03-02T00:15:31;7.30;20.40
23783;DHT22;12071;50.850;4.446;2024-03-02T00:18:03;7.40;20.10
23783;DHT22;12071;50.850;4.446;2024-03-02T00:20:30;7.40;15.60
23783;DHT22;12071;50.850;4.446;2024-03-02T00:23:07;7.30;13.20
23783;DHT22;12071;50.850;4.446;2024-03-02T00:25:40;7.40;16.70
23783;DHT22;12071;50.850;4.446;2024-03-02T00:28:14;7.40;15.50
23783;DHT22;12071;50.850;4.446;2024-03-02T00:30:51;7.40;9.80
23783;DHT22;12071;50.850;4.446;2024-03-02T00:33:19;7.40;7.70
23783;DHT22;12071;50.850;4.446;2024-03-02T00:35:45;7.30;10.80
23783;DHT22;12071;50.850;4.446;2024-03-02T00:38:14;7.50;8.60
23783;DHT22;12071;50.850;4.446;2024-03-02T00:40:41;7.40;8.90
23783;DHT22;12071;50.850;4.446;2024-03-02T00:46:03;7.40;7.50
23783;DHT22;12071;50.850;4.446;2024-03-02T00:48:29;7.60;7.30
23783;DHT22;12071;50.850;4.446;2024-03-02T00:50:57;7.70;1.00
23783;DHT22;12071;50.850;4.446;2024-03-02T00:53:26;7.70;1.00
23783;DHT22;12071;50.850;4.446;2024-03-02T00:55:52;7.60;1.00
23783;DHT22;12071;50.850;4.446;2024-03-02T00:58:18;7.50;1.00
23783;DHT22;12071;50.850;4.446;2024-03-02T01:00:45;7.50;1.00
23783;DHT22;12071;50.850;4.446;2024-03-02T01:03:12;7.50;1.00
23783;DHT22;12071;50.850;4.446;2024-03-02T01:05:41;7.50;1.00
23783;DHT22;12071;50.850;4.446;2024-03-02T01:08:08;7.60;1.00
23783;DHT22;12071;50.850;4.446;2024-03-02T01:10:34;7.50;1.00
23783;DHT22;12071;50.850;4.446;2024-03-02T01:13:00;7.40;1.00
23783;DHT22;12071;50.850;4.446;2024-03-02T01:15:25;7.40;1.00
23783;DHT22;12071;50.850;4.446;2024-03-02T01:17:52;7.50;1.00
23783;DHT22;12071;50.850;4.446;2024-03-02T01:20:18;7.40;1.00
23783;DHT22;12071;50.850;4.446;2024-03-02T01:22:44;7.50;1.00
23783;DHT22;12071;50.850;4.446;2024-03-02T01:25:10;7.40;1.00
23783;DHT22;12071;50.850;4.446;2024-03-02T01:27:36;7.40;1.00
23783;DHT22;12071;50.850;4.446;2024-03-02T01:30:01;7.40;1.00
23783;DHT22;12071;50.850;4.446;2024-03-02T01:32:27;7.40;1.00
23783;DHT22;12071;50.850;4.446;2024-03-02T01:34:52;7.40;1.00
23783;DHT22;12071;50.850;4.446;2024-03-02T01:37:19;7.50;1.00
23783;DHT22;12071;50.850;4.446;2024-03-02T01:39:45;7.50;1.00
23783;DHT22;12071;50.850;4.446;2024-03-02T01:42:11;7.40;1.00
23783;DHT22;12071;50.850;4.446;2024-03-02T01:44:37;7.50;1.00
23783;DHT22;12071;50.850;4.446;2024-03-02T01:47:02;7.40;1.00
23783;DHT22;12071;50.850;4.446;2024-03-02T01:49:28;7.40;1.00
23783;DHT22;12071;50.850;4.446;2024-03-02T01:51:54;7.40;1.00
23783;DHT22;12071;50.850;4.446;2024-03-02T01:54:20;7.40;1.00
23783;DHT22;12071;50.850;4.446;2024-03-02T01:56:45;7.50;1.00
23783;DHT22;12071;50.850;4.446;2024-03-02T01:59:11;7.50;1.00
23783;DHT22;12071;50.850;4.446;2024-03-02T02:01:38;7.40;1.00
23783;DHT22;12071;50.850;4.446;2024-03-02T02:04:04;7.40;1.00
23783;DHT22;12071;50.850;4.446;2024-03-02T02:06:32;7.50;1.00
23783;DHT22;12071;50.850;4.446;2024-03-02T02:08:57;7.50;1.00
23783;DHT22;12071;50.850;4.446;2024-03-02T02:11:24;7.50;1.00
23783;DHT22;12071;50.850;4.446;2024-03-02T02:13:49;7.70;1.00
23783;DHT22;12071;50.850;4.446;2024-03-02T02:16:16;7.70;1.00
23783;DHT22;12071;50.850;4.446;2024-03-02T02:18:42;7.80;1.00
23783;DHT22;12071;50.850;4.446;2024-03-02T02:21:08;7.70;1.00
23783;DHT22;12071;50.850;4.446;2024-03-02T02:23:33;7.50;1.00
23783;DHT22;12071;50.850;4.446;2024-03-02T02:25:59;7.40;1.00
23783;DHT22;12071;50.850;4.446;2024-03-02T02:28:25;7.60;1.00
23783;DHT22;12071;50.850;4.446;2024-03-02T02:30:50;7.60;1.00
23783;DHT22;12071;50.850;4.446;2024-03-02T02:33:17;7.70;1.00
23783;DHT22;12071;50.850;4.446;2024-03-02T02:35:43;7.60;1.00
23783;DHT22;12071;50.850;4.446;2024-03-02T02:38:08;7.50;1.00
23783;DHT22;12071;50.850;4.446;2024-03-02T02:40:34;7.50;1.00
23783;DHT22;12071;50.850;4.446;2024-03-02T02:42:59;7.60;1.00
23783;DHT22;12071;50.850;4.446;2024-03-02T02:45:25;7.60;1.00
23783;DHT22;12071;50.850;4.446;2024-03-02T02:47:51;7.60;1.00
23783;DHT22;12071;50.850;4.446;2024-03-02T02:50:17;7.60;1.00
23783;DHT22;12071;50.850;4.446;2024-03-02T02:52:42;7.60;1.00
23783;DHT22;12071;50.850;4.446;2024-03-02T02:55:10;7.60;1.00
23783;DHT22;12071;50.850;4.446;2024-03-02T02:57:37;7.50;1.00
23783;DHT22;12071;50.850;4.446;2024-03-02T03:02:40;7.60;1.00
23783;DHT22;12071;50.850;4.446;2024-03-02T03:05:12;7.60;1.00
23783;DHT22;12071;50.850;4.446;2024-03-02T03:07:39;7.50;1.00
23783;DHT22;12071;50.850;4.446;2024-03-02T03:10:06;7.20;1.00
23783;DHT22;12071;50.850;4.446;2024-03-02T03:12:32;7.20;1.00
23783;DHT22;12071;50.850;4.446;2024-03-02T03:14:58;7.20;1.00
23783;DHT22;12071;50.850;4.446;2024-03-02T03:17:24;7.10;1.00
23783;DHT22;12071;50.850;4.446;2024-03-02T03:19:50;7.00;1.00
23783;DHT22;12071;50.850;4.446;2024-03-02T03:22:17;7.20;1.00
23783;DHT22;12071;50.850;4.446;2024-03-02T03:24:42;7.10;1.00
23783;DHT22;12071;50.850;4.446;2024-03-02T03:27:09;7.10;1.00
23783;DHT22;12071;50.850;4.446;2024-03-02T03:29:38;7.10;1.00
23783;DHT22;12071;50.850;4.446;2024-03-02T03:32:04;7.30;1.00
23783;DHT22;12071;50.850;4.446;2024-03-02T03:34:35;7.30;1.00
23783;DHT22;12071;50.850;4.446;2024-03-02T03:37:01;7.20;1.00
23783;DHT22;12071;50.850;4.446;2024-03-02T03:39:27;7.40;1.00
23783;DHT22;12071;50.850;4.446;2024-03-02T03:41:54;7.40;1.00
23783;DHT22;12071;50.850;4.446;2024-03-02T03:44:19;7.50;1.00
23783;DHT22;12071;50.850;4.446;2024-03-02T03:46:45;7.20;1.00
23783;DHT22;12071;50.850;4.446;2024-03-02T03:49:12;7.20;1.00
23783;DHT22;12071;50.850;4.446;2024-03-02T03:51:38;7.20;1.00
23783;DHT22;12071;50.850;4.446;2024-03-02T03:54:04;7.20;1.00
23783;DHT22;12071;50.850;4.446;2024-03-02T03:56:30;7.20;1.00
23783;DHT22;12071;50.850;4.446;2024-03-02T03:58:57;7.30;1.00
23783;DHT22;12071;50.850;4.446;2024-03-02T04:01:22;7.30;1.00
23783;DHT22;12071;50.850;4.446;2024-03-02T04:03:48;7.30;1.00
23783;DHT22;12071;50.850;4.446;2024-03-02T04:06:14;7.30;1.00
23783;DHT22;12071;50.850;4.446;2024-03-02T04:08:42;7.30;1.00
23783;DHT22;12071;50.850;4.446;2024-03-02T04:11:07;7.30;1.00
23783;DHT22;12071;50.850;4.446;2024-03-02T04:13:34;7.40;1.00
23783;DHT22;12071;50.850;4.446;2024-03-02T04:16:00;7.40;1.00
23783;DHT22;12071;50.850;4.446;2024-03-02T04:18:26;7.40;1.00
23783;DHT22;12071;50.850;4.446;2024-03-02T04:20:52;7.40;1.00
23783;DHT22;12071;50.850;4.446;2024-03-02T04:23:18;7.20;1.00
23783;DHT22;12071;50.850;4.446;2024-03-02T04:25:43;7.10;1.00
23783;DHT22;12071;50.850;4.446;2024-03-02T04:28:09;7.10;1.00
23783;DHT22;12071;50.850;4.446;2024-03-02T04:30:35;7.10;1.00
23783;DHT22;12071;50.850;4.446;2024-03-02T04:33:00;7.00;1.00
23783;DHT22;12071;50.850;4.446;2024-03-02T04:35:27;7.00;1.00
23783;DHT22;12071;50.850;4.446;2024-03-02T04:37:54;6.90;1.00
23783;DHT22;12071;50.850;4.446;2024-03-02T04:40:19;6.90;1.00
23783;DHT22;12071;50.850;4.446;2024-03-02T04:42:45;7.00;1.00
23783;DHT22;12071;50.850;4.446;2024-03-02T04:45:11;7.00;1.00
23783;DHT22;12071;50.850;4.446;2024-03-02T04:47:36;7.00;1.00
23783;DHT22;12071;50.850;4.446;2024-03-02T04:50:02;6.90;1.00
23783;DHT22;12071;50.850;4.446;2024-03-02T04:52:28;7.00;1.00
23783;DHT22;12071;50.850;4.446;2024-03-02T04:54:53;7.00;1.00
23783;DHT22;12071;50.850;4.446;2024-03-02T04:57:38;7.10;1.00
23783;DHT22;12071;50.850;4.446;2024-03-02T05:00:04;7.10;1.00
23783;DHT22;12071;50.850;4.446;2024-03-02T05:02:32;6.90;1.00
23783;DHT22;12071;50.850;4.446;2024-03-02T05:04:58;7.00;1.00
23783;DHT22;12071;50.850;4.446;2024-03-02T05:07:23;7.00;1.00
23783;DHT22;12071;50.850;4.446;2024-03-02T05:09:49;6.90;1.00
23783;DHT22;12071;50.850;4.446;2024-03-02T05:12:15;6.80;1.00
23783;DHT22;12071;50.850;4.446;2024-03-02T05:14:59;6.80;1.00
23783;DHT22;12071;50.850;4.446;2024-03-02T05:17:24;6.60;1.00
23783;DHT22;12071;50.850;4.446;2024-03-02T05:19:50;6.60;1.00
23783;DHT22;12071;50.850;4.446;2024-03-02T05:22:16;6.50;1.00
23783;DHT22;12071;50.850;4.446;2024-03-02T05:24:42;6.80;1.00
23783;DHT22;12071;50.850;4.446;2024-03-02T05:27:07;6.60;1.00
23783;DHT22;12071;50.850;4.446;2024-03-02T05:29:34;6.60;1.00
23783;DHT22;12071;50.850;4.446;2024-03-02T05:32:00;6.50;1.00
23783;DHT22;12071;50.850;4.446;2024-03-02T05:34:25;6.50;1.00
23783;DHT22;12071;50.850;4.446;2024-03-02T05:36:51;6.40;1.00
23783;DHT22;12071;50.850;4.446;2024-03-02T05:39:17;6.50;1.00
23783;DHT22;12071;50.850;4.446;2024-03-02T05:41:42;6.50;1.00
23783;DHT22;12071;50.850;4.446;2024-03-02T05:44:08;6.60;1.00
23783;DHT22;12071;50.850;4.446;2024-03-02T05:46:34;6.60;1.00
23783;DHT22;12071;50.850;4.446;2024-03-02T05:49:00;6.60;1.00
23783;DHT22;12071;50.850;4.446;2024-03-02T05:51:26;6.50;1.00
23783;DHT22;12071;50.850;4.446;2024-03-02T05:53:52;6.50;1.00
23783;DHT22;12071;50.850;4.446;2024-03-02T05:56:17;6.60;1.00
23783;DHT22;12071;50.850;4.446;2024-03-02T05:58:44;6.50;1.00
23783;DHT22;12071;50.850;4.446;2024-03-02T06:01:29;6.60;1.00
23783;DHT22;12071;50.850;4.446;2024-03-02T06:03:56;6.60;1.00
23783;DHT22;12071;50.850;4.446;2024-03-02T06:06:25;6.50;1.00
23783;DHT22;12071;50.850;4.446;2024-03-02T06:08:52;6.30;1.00
23783;DHT22;12071;50.850;4.446;2024-03-02T06:11:21;6.20;1.00
23783;DHT22;12071;50.850;4.446;2024-03-02T06:13:47;6.10;1.00
23783;DHT22;12071;50.850;4.446;2024-03-02T06:16:13;6.20;1.00
23783;DHT22;12071;50.850;4.446;2024-03-02T06:18:40;6.10;1.00
23783;DHT22;12071;50.850;4.446;2024-03-02T06:21:05;6.10;1.00
23783;DHT22;12071;50.850;4.446;2024-03-02T06:23:31;6.30;1.00
23783;DHT22;12071;50.850;4.446;2024-03-02T06:25:57;6.30;1.00
23783;DHT22;12071;50.850;4.446;2024-03-02T06:28:23;6.40;1.00
23783;DHT22;12071;50.850;4.446;2024-03-02T06:30:49;6.20;1.00
23783;DHT22;12071;50.850;4.446;2024-03-02T06:33:14;6.30;1.00
23783;DHT22;12071;50.850;4.446;2024-03-02T06:35:41;6.40;1.00
23783;DHT22;12071;50.850;4.446;2024-03-02T06:38:08;6.30;1.00
23783;DHT22;12071;50.850;4.446;2024-03-02T06:40:34;6.20;1.00
23783;DHT22;12071;50.850;4.446;2024-03-02T06:43:00;6.10;1.00
23783;DHT22;12071;50.850;4.446;2024-03-02T06:45:26;6.00;1.00
23783;DHT22;12071;50.850;4.446;2024-03-02T06:47:52;6.00;1.00
23783;DHT22;12071;50.850;4.446;2024-03-02T06:50:17;6.10;1.00
23783;DHT22;12071;50.850;4.446;2024-03-02T06:52:43;6.20;1.00
23783;DHT22;12071;50.850;4.446;2024-03-02T06:55:10;6.10;1.00
23783;DHT22;12071;50.850;4.446;2024-03-02T06:57:36;6.20;1.00
23783;DHT22;12071;50.850;4.446;2024-03-02T07:00:02;6.10;1.00
23783;DHT22;12071;50.850;4.446;2024-03-02T07:02:30;6.20;1.00
23783;DHT22;12071;50.850;4.446;2024-03-02T07:04:56;6.40;1.00
23783;DHT22;12071;50.850;4.446;2024-03-02T07:07:22;6.30;1.00
23783;DHT22;12071;50.850;4.446;2024-03-02T07:09:47;6.30;1.00
23783;DHT22;12071;50.850;4.446;2024-03-02T07:12:14;6.40;1.00
23783;DHT22;12071;50.850;4.446;2024-03-02T07:14:41;6.50;1.00
23783;DHT22;12071;50.850;4.446;2024-03-02T07:17:25;6.50;1.00
23783;DHT22;12071;50.850;4.446;2024-03-02T07:19:51;6.50;1.00
23783;DHT22;12071;50.850;4.446;2024-03-02T07:22:17;6.40;1.00
23783;DHT22;12071;50.850;4.446;2024-03-02T07:24:44;6.40;1.00
23783;DHT22;12071;50.850;4.446;2024-03-02T07:27:12;6.50;1.00
23783;DHT22;12071;50.850;4.446;2024-03-02T07:29:38;6.50;1.00
23783;DHT22;12071;50.850;4.446;2024-03-02T07:32:05;6.50;1.00
23783;DHT22;12071;50.850;4.446;2024-03-02T07:34:31;6.40;1.00
23783;DHT22;12071;50.850;4.446;2024-03-02T07:36:57;6.40;1.00
23783;DHT22;12071;50.850;4.446;2024-03-02T07:39:23;6.50;1.00
23783;DHT22;12071;50.850;4.446;2024-03-02T07:41:49;6.60;1.00
23783;DHT22;12071;50.850;4.446;2024-03-02T07:44:15;6.80;1.00
23783;DHT22;12071;50.850;4.446;2024-03-02T07:46:42;6.90;1.00
23783;DHT22;12071;50.850;4.446;2024-03-02T07:49:08;6.80;1.00
23783;DHT22;12071;50.850;4.446;2024-03-02T07:51:35;6.80;1.00
23783;DHT22;12071;50.850;4.446;2024-03-02T07:54:01;6.80;1.00
23783;DHT22;12071;50.850;4.446;2024-03-02T07:56:26;6.90;1.00
23783;DHT22;12071;50.850;4.446;2024-03-02T07:58:52;7.10;1.00
23783;DHT22;12071;50.850;4.446;2024-03-02T08:01:18;7.00;1.00
23783;DHT22;12071;50.850;4.446;2024-03-02T08:03:44;7.20;1.00
23783;DHT22;12071;50.850;4.446;2024-03-02T08:06:15;7.30;1.00
23783;DHT22;12071;50.850;4.446;2024-03-02T08:08:41;7.40;1.00
23783;DHT22;12071;50.850;4.446;2024-03-02T08:11:07;7.30;1.00
23783;DHT22;12071;50.850;4.446;2024-03-02T08:13:32;7.40;1.00
23783;DHT22;12071;50.850;4.446;2024-03-02T08:15:58;7.40;1.00
23783;DHT22;12071;50.850;4.446;2024-03-02T08:18:24;7.50;1.00
23783;DHT22;12071;50.850;4.446;2024-03-02T08:20:50;7.40;1.00
23783;DHT22;12071;50.850;4.446;2024-03-02T08:23:17;7.60;1.00
23783;DHT22;12071;50.850;4.446;2024-03-02T08:25:43;7.70;1.00
23783;DHT22;12071;50.850;4.446;2024-03-02T08:28:08;7.70;1.00
23783;DHT22;12071;50.850;4.446;2024-03-02T08:30:34;7.70;1.00
23783;DHT22;12071;50.850;4.446;2024-03-02T08:33:00;7.80;1.00
23783;DHT22;12071;50.850;4.446;2024-03-02T08:35:25;8.00;1.00
23783;DHT22;12071;50.850;4.446;2024-03-02T08:37:51;8.20;1.00
23783;DHT22;12071;50.850;4.446;2024-03-02T08:40:17;8.30;1.00
23783;DHT22;12071;50.850;4.446;2024-03-02T08:42:43;8.20;99.90
23783;DHT22;12071;50.850;4.446;2024-03-02T08:45:09;8.30;99.90
23783;DHT22;12071;50.850;4.446;2024-03-02T08:47:34;8.30;99.90
23783;DHT22;12071;50.850;4.446;2024-03-02T08:50:00;8.50;99.90
23783;DHT22;12071;50.850;4.446;2024-03-02T08:52:26;8.60;99.90
23783;DHT22;12071;50.850;4.446;2024-03-02T08:54:53;8.40;99.90
23783;DHT22;12071;50.850;4.446;2024-03-02T08:57:19;8.70;99.90
23783;DHT22;12071;50.850;4.446;2024-03-02T08:59:44;8.70;99.90
23783;DHT22;12071;50.850;4.446;2024-03-02T09:02:10;8.90;99.90
23783;DHT22;12071;50.850;4.446;2024-03-02T09:04:37;8.90;99.90
23783;DHT22;12071;50.850;4.446;2024-03-02T09:07:05;9.00;99.90
23783;DHT22;12071;50.850;4.446;2024-03-02T09:09:33;9.10;99.90
23783;DHT22;12071;50.850;4.446;2024-03-02T09:11:59;9.10;99.90
23783;DHT22;12071;50.850;4.446;2024-03-02T09:14:24;9.10;99.90
23783;DHT22;12071;50.850;4.446;2024-03-02T09:16:50;9.20;99.90
23783;DHT22;12071;50.850;4.446;2024-03-02T09:19:16;9.30;99.90
23783;DHT22;12071;50.850;4.446;2024-03-02T09:21:42;9.40;69.80
23783;DHT22;12071;50.850;4.446;2024-03-02T09:24:09;9.30;29.00
23783;DHT22;12071;50.850;4.446;2024-03-02T09:26:35;9.40;98.10
23783;DHT22;12071;50.850;4.446;2024-03-02T09:29:01;9.60;89.20
23783;DHT22;12071;50.850;4.446;2024-03-02T09:31:26;9.70;1.00
23783;DHT22;12071;50.850;4.446;2024-03-02T09:33:52;9.80;99.90
23783;DHT22;12071;50.850;4.446;2024-03-02T09:36:19;9.90;99.90
23783;DHT22;12071;50.850;4.446;2024-03-02T09:38:45;9.90;99.90
23783;DHT22;12071;50.850;4.446;2024-03-02T09:41:11;9.90;1.00
23783;DHT22;12071;50.850;4.446;2024-03-02T09:43:37;10.00;1.00
23783;DHT22;12071;50.850;4.446;2024-03-02T09:46:03;10.20;99.90
23783;DHT22;12071;50.850;4.446;2024-03-02T09:48:29;10.30;99.90
23783;DHT22;12071;50.850;4.446;2024-03-02T09:50:55;10.10;99.90
23783;DHT22;12071;50.850;4.446;2024-03-02T09:53:22;10.20;99.90
23783;DHT22;12071;50.850;4.446;2024-03-02T09:55:49;10.20;79.20
23783;DHT22;12071;50.850;4.446;2024-03-02T09:58:14;10.30;1.00
23783;DHT22;12071;50.850;4.446;2024-03-02T10:00:40;10.30;55.40
23783;DHT22;12071;50.850;4.446;2024-03-02T10:03:12;10.40;1.00
23783;DHT22;12071;50.850;4.446;2024-03-02T10:05:38;10.40;99.90
23783;DHT22;12071;50.850;4.446;2024-03-02T10:08:04;10.60;40.30
23783;DHT22;12071;50.850;4.446;2024-03-02T10:10:37;10.80;99.90
23783;DHT22;12071;50.850;4.446;2024-03-02T10:13:07;11.00;1.00
23783;DHT22;12071;50.850;4.446;2024-03-02T10:15:33;11.30;99.90
23783;DHT22;12071;50.850;4.446;2024-03-02T10:17:59;11.40;1.00
23783;DHT22;12071;50.850;4.446;2024-03-02T10:20:26;11.60;99.90
23783;DHT22;12071;50.850;4.446;2024-03-02T10:23:09;11.70;99.90
23783;DHT22;12071;50.850;4.446;2024-03-02T10:25:35;11.80;99.90
23783;DHT22;12071;50.850;4.446;2024-03-02T10:28:01;11.90;1.00
23783;DHT22;12071;50.850;4.446;2024-03-02T10:30:28;11.90;99.90
23783;DHT22;12071;50.850;4.446;2024-03-02T10:32:56;11.90;1.00
23783;DHT22;12071;50.850;4.446;2024-03-02T10:35:23;11.90;99.90
23783;DHT22;12071;50.850;4.446;2024-03-02T10:37:52;11.70;99.90
23783;DHT22;12071;50.850;4.446;2024-03-02T10:40:21;11.60;1.00
23783;DHT22;12071;50.850;4.446;2024-03-02T10:42:48;11.80;99.90
23783;DHT22;12071;50.850;4.446;2024-03-02T10:45:16;12.00;83.30
23783;DHT22;12071;50.850;4.446;2024-03-02T10:47:43;12.30;1.00
23783;DHT22;12071;50.850;4.446;2024-03-02T10:50:09;12.60;1.00
23783;DHT22;12071;50.850;4.446;2024-03-02T10:52:36;12.80;1.00
23783;DHT22;12071;50.850;4.446;2024-03-02T10:55:02;12.70;99.90
23783;DHT22;12071;50.850;4.446;2024-03-02T10:58:10;12.60;1.00
23783;DHT22;12071;50.850;4.446;2024-03-02T11:00:33;12.40;99.90
23783;DHT22;12071;50.850;4.446;2024-03-02T11:03:06;12.40;99.90
23783;DHT22;12071;50.850;4.446;2024-03-02T11:05:36;12.60;99.90
23783;DHT22;12071;50.850;4.446;2024-03-02T11:08:08;12.60;99.90
23783;DHT22;12071;50.850;4.446;2024-03-02T11:10:36;12.50;99.90
23783;DHT22;12071;50.850;4.446;2024-03-02T11:13:05;12.50;73.50
23783;DHT22;12071;50.850;4.446;2024-03-02T11:15:35;12.40;1.00
23783;DHT22;12071;50.850;4.446;2024-03-02T11:18:04;12.50;99.90
23783;DHT22;12071;50.850;4.446;2024-03-02T11:20:32;12.70;99.90
23783;DHT22;12071;50.850;4.446;2024-03-02T11:22:57;13.10;99.90
23783;DHT22;12071;50.850;4.446;2024-03-02T11:25:31;13.40;1.00
23783;DHT22;12071;50.850;4.446;2024-03-02T11:28:07;13.40;99.90
23783;DHT22;12071;50.850;4.446;2024-03-02T11:33:08;13.60;99.90
23783;DHT22;12071;50.850;4.446;2024-03-02T11:35:35;13.60;99.90
23783;DHT22;12071;50.850;4.446;2024-03-02T11:38:01;13.40;99.90
23783;DHT22;12071;50.850;4.446;2024-03-02T11:40:29;13.40;99.90
23783;DHT22;12071;50.850;4.446;2024-03-02T11:42:56;13.50;99.90
23783;DHT22;12071;50.850;4.446;2024-03-02T11:45:26;13.70;99.90
23783;DHT22;12071;50.850;4.446;2024-03-02T11:47:56;13.60;99.90
23783;DHT22;12071;50.850;4.446;2024-03-02T11:50:39;13.70;99.90
23783;DHT22;12071;50.850;4.446;2024-03-02T11:53:08;13.80;99.90
23783;DHT22;12071;50.850;4.446;2024-03-02T11:55:35;14.00;23.10
23783;DHT22;12071;50.850;4.446;2024-03-02T11:58:03;14.30;1.00
23783;DHT22;12071;50.850;4.446;2024-03-02T12:00:29;14.30;1.00
23783;DHT22;12071;50.850;4.446;2024-03-02T12:03:06;14.20;1.00
23783;DHT22;12071;50.850;4.446;2024-03-02T12:05:32;14.20;1.00
23783;DHT22;12071;50.850;4.446;2024-03-02T12:08:05;14.60;37.40
23783;DHT22;12071;50.850;4.446;2024-03-02T12:10:32;14.90;29.80
23783;DHT22;12071;50.850;4.446;2024-03-02T12:12:59;15.00;1.00
23783;DHT22;12071;50.850;4.446;2024-03-02T12:15:27;15.40;1.00
23783;DHT22;12071;50.850;4.446;2024-03-02T12:18:00;15.30;99.90
23783;DHT22;12071;50.850;4.446;2024-03-02T12:20:28;15.10;99.90
23783;DHT22;12071;50.850;4.446;2024-03-02T12:22:57;14.90;99.90
23783;DHT22;12071;50.850;4.446;2024-03-02T12:25:24;14.80;99.90
23783;DHT22;12071;50.850;4.446;2024-03-02T12:27:54;14.90;99.90
23783;DHT22;12071;50.850;4.446;2024-03-02T12:30:20;15.00;99.90
23783;DHT22;12071;50.850;4.446;2024-03-02T12:32:47;15.10;99.90
23783;DHT22;12071;50.850;4.446;2024-03-02T12:35:13;15.10;99.90
23783;DHT22;12071;50.850;4.446;2024-03-02T12:37:45;15.00;99.90
23783;DHT22;12071;50.850;4.446;2024-03-02T12:40:12;14.90;99.90
23783;DHT22;12071;50.850;4.446;2024-03-02T12:42:39;14.70;99.90
23783;DHT22;12071;50.850;4.446;2024-03-02T12:45:06;14.50;99.90
23783;DHT22;12071;50.850;4.446;2024-03-02T12:47:33;14.30;99.90
23783;DHT22;12071;50.850;4.446;2024-03-02T12:50:00;14.10;99.90
23783;DHT22;12071;50.850;4.446;2024-03-02T12:52:26;14.20;1.00
23783;DHT22;12071;50.850;4.446;2024-03-02T12:54:53;14.40;1.00
23783;DHT22;12071;50.850;4.446;2024-03-02T12:57:28;14.30;1.00
23783;DHT22;12071;50.850;4.446;2024-03-02T12:59:59;14.30;1.00
23783;DHT22;12071;50.850;4.446;2024-03-02T13:02:28;14.40;99.90
23783;DHT22;12071;50.850;4.446;2024-03-02T13:04:58;14.60;99.90
23783;DHT22;12071;50.850;4.446;2024-03-02T13:07:25;14.90;99.90
23783;DHT22;12071;50.850;4.446;2024-03-02T13:09:52;15.10;99.90
23783;DHT22;12071;50.850;4.446;2024-03-02T13:12:19;15.00;99.90
23783;DHT22;12071;50.850;4.446;2024-03-02T13:14:48;15.10;99.90
23783;DHT22;12071;50.850;4.446;2024-03-02T13:17:15;15.00;99.90
23783;DHT22;12071;50.850;4.446;2024-03-02T13:20:00;14.90;99.90
23783;DHT22;12071;50.850;4.446;2024-03-02T13:22:26;14.80;99.90
23783;DHT22;12071;50.850;4.446;2024-03-02T13:24:53;14.70;99.90
23783;DHT22;12071;50.850;4.446;2024-03-02T13:27:20;14.70;99.90
23783;DHT22;12071;50.850;4.446;2024-03-02T13:29:48;14.60;99.90
23783;DHT22;12071;50.850;4.446;2024-03-02T13:32:17;14.70;99.90
23783;DHT22;12071;50.850;4.446;2024-03-02T13:34:46;14.70;99.90
23783;DHT22;12071;50.850;4.446;2024-03-02T13:37:12;14.60;99.90
23783;DHT22;12071;50.850;4.446;2024-03-02T13:39:39;14.60;99.90
23783;DHT22;12071;50.850;4.446;2024-03-02T13:42:09;14.70;99.90
23783;DHT22;12071;50.850;4.446;2024-03-02T13:44:35;14.60;1.00
23783;DHT22;12071;50.850;4.446;2024-03-02T13:47:01;14.70;1.00
23783;DHT22;12071;50.850;4.446;2024-03-02T13:49:27;14.60;1.00
23783;DHT22;12071;50.850;4.446;2024-03-02T13:52:04;14.50;1.00
23783;DHT22;12071;50.850;4.446;2024-03-02T13:54:43;14.30;1.00
23783;DHT22;12071;50.850;4.446;2024-03-02T13:57:09;14.40;1.00
23783;DHT22;12071;50.850;4.446;2024-03-02T13:59:35;14.60;1.00
23783;DHT22;12071;50.850;4.446;2024-03-02T14:02:02;14.60;1.00
23783;DHT22;12071;50.850;4.446;2024-03-02T14:04:30;14.60;1.00
23783;DHT22;12071;50.850;4.446;2024-03-02T14:06:56;14.40;1.00
23783;DHT22;12071;50.850;4.446;2024-03-02T14:09:22;14.40;1.00
23783;DHT22;12071;50.850;4.446;2024-03-02T14:11:50;14.40;1.00
23783;DHT22;12071;50.850;4.446;2024-03-02T14:14:16;14.20;1.00
23783;DHT22;12071;50.850;4.446;2024-03-02T14:16:45;14.10;1.00
23783;DHT22;12071;50.850;4.446;2024-03-02T14:19:11;14.00;1.00
23783;DHT22;12071;50.850;4.446;2024-03-02T14:21:38;13.90;1.00
23783;DHT22;12071;50.850;4.446;2024-03-02T14:24:04;13.80;11.70
23783;DHT22;12071;50.850;4.446;2024-03-02T14:26:30;13.70;20.60
23783;DHT22;12071;50.850;4.446;2024-03-02T14:28:56;13.80;99.90
23783;DHT22;12071;50.850;4.446;2024-03-02T14:31:21;13.80;99.90
23783;DHT22;12071;50.850;4.446;2024-03-02T14:33:47;13.90;99.90
23783;DHT22;12071;50.850;4.446;2024-03-02T14:36:13;14.00;99.90
23783;DHT22;12071;50.850;4.446;2024-03-02T14:38:39;14.00;99.90
23783;DHT22;12071;50.850;4.446;2024-03-02T14:41:05;14.00;99.90
23783;DHT22;12071;50.850;4.446;2024-03-02T14:43:31;14.00;99.90
23783;DHT22;12071;50.850;4.446;2024-03-02T14:45:56;14.00;99.90
23783;DHT22;12071;50.850;4.446;2024-03-02T14:48:24;14.10;1.00
23783;DHT22;12071;50.850;4.446;2024-03-02T14:50:49;14.20;99.90
23783;DHT22;12071;50.850;4.446;2024-03-02T14:53:15;14.30;99.90
23783;DHT22;12071;50.850;4.446;2024-03-02T14:55:41;14.40;99.90
23783;DHT22;12071;50.850;4.446;2024-03-02T14:58:06;14.50;99.90
23783;DHT22;12071;50.850;4.446;2024-03-02T15:00:33;14.30;99.90
23783;DHT22;12071;50.850;4.446;2024-03-02T15:02:59;14.20;99.90
23783;DHT22;12071;50.850;4.446;2024-03-02T15:05:25;14.10;99.90
23783;DHT22;12071;50.850;4.446;2024-03-02T15:07:52;14.20;99.90
23783;DHT22;12071;50.850;4.446;2024-03-02T15:10:17;14.00;1.00
23783;DHT22;12071;50.850;4.446;2024-03-02T15:12:44;13.90;99.90
23783;DHT22;12071;50.850;4.446;2024-03-02T15:15:10;13.60;99.90
23783;DHT22;12071;50.850;4.446;2024-03-02T15:17:37;13.50;99.90
23783;DHT22;12071;50.850;4.446;2024-03-02T15:20:03;13.40;1.00
23783;DHT22;12071;50.850;4.446;2024-03-02T15:22:30;13.40;1.00
23783;DHT22;12071;50.850;4.446;2024-03-02T15:24:55;13.40;99.90
23783;DHT22;12071;50.850;4.446;2024-03-02T15:27:21;13.40;99.90
23783;DHT22;12071;50.850;4.446;2024-03-02T15:29:47;13.50;99.90
23783;DHT22;12071;50.850;4.446;2024-03-02T15:32:16;13.40;1.00
23783;DHT22;12071;50.850;4.446;2024-03-02T15:34:42;13.50;1.00
23783;DHT22;12071;50.850;4.446;2024-03-02T15:37:09;13.50;67.40
23783;DHT22;12071;50.850;4.446;2024-03-02T15:39:34;13.50;25.20
23783;DHT22;12071;50.850;4.446;2024-03-02T15:42:00;13.60;40.50
23783;DHT22;12071;50.850;4.446;2024-03-02T15:44:27;13.50;99.90
23783;DHT22;12071;50.850;4.446;2024-03-02T15:46:52;13.60;1.00
23783;DHT22;12071;50.850;4.446;2024-03-02T15:49:18;13.80;1.00
23783;DHT22;12071;50.850;4.446;2024-03-02T15:51:44;13.80;99.90
23783;DHT22;12071;50.850;4.446;2024-03-02T15:54:11;13.80;99.90
23783;DHT22;12071;50.850;4.446;2024-03-02T15:56:38;13.90;99.90